createdAt,value
2023-05-07T09:44:26.402Z,22.55
2023-05-07T09:45:26.313Z,22.62
2023-05-07T09:46:26.283Z,22.76
2023-05-07T09:47:26.330Z,22.82
2023-05-07T09:48:26.266Z,22.94
2023-05-07T09:49:26.258Z,23.07
2023-05-07T09:50:26.236Z,23.04
2023-05-07T09:51:26.237Z,22.91
2023-05-07T09:52:58.211Z,22.77
2023-05-07T09:53:58.181Z,23.02
2023-05-07T09:54:58.190Z,22.95
2023-05-07T09:55:58.181Z,22.98
2023-05-07T09:56:58.177Z,23.01
2023-05-07T09:57:58.131Z,23.17
2023-05-07T09:58:58.141Z,23.47
2023-05-07T09:59:58.162Z,23.57
2023-05-07T10:00:58.142Z,23.61
2023-05-07T10:01:58.104Z,23.60
2023-05-07T10:02:58.222Z,23.27
2023-05-07T10:03:58.251Z,23.28
2023-05-07T10:04:58.083Z,23.10
2023-05-07T10:05:58.074Z,23.01
2023-05-07T10:06:58.079Z,23.04
2023-05-07T10:07:58.051Z,23.10
2023-05-07T10:08:58.042Z,23.16
2023-05-07T10:09:58.016Z,23.15
2023-05-07T10:10:58.033Z,23.17
2023-05-07T10:11:57.994Z,23.25
2023-05-07T10:12:58.048Z,23.32
2023-05-07T10:13:57.989Z,23.42
2023-05-07T10:14:57.968Z,23.54
2023-05-07T10:15:58.163Z,23.57
2023-05-07T10:16:57.966Z,23.97
2023-05-07T10:17:58.039Z,24.08
2023-05-07T10:18:57.931Z,24.34
2023-05-07T10:19:57.926Z,24.53
2023-05-07T10:20:57.914Z,24.49
2023-05-07T10:21:57.922Z,24.52
2023-05-07T10:22:57.898Z,24.77
2023-05-07T10:23:57.878Z,24.99
2023-05-07T10:24:57.893Z,25.10
2023-05-07T10:26:01.027Z,24.90
2023-05-07T10:26:57.879Z,24.68
2023-05-07T10:27:57.846Z,24.62
2023-05-07T10:28:57.860Z,24.85
2023-05-07T10:29:57.864Z,24.62
2023-05-07T10:30:57.864Z,24.61
2023-05-07T10:31:57.899Z,24.73
2023-05-07T10:32:57.874Z,24.98
2023-05-07T10:33:57.802Z,24.81
2023-05-07T10:34:57.813Z,24.83
2023-05-07T10:49:32.084Z,24.12
2023-05-07T10:50:34.084Z,24.39
2023-05-07T10:51:34.024Z,24.60
2023-05-07T10:57:35.649Z,25.40
2023-05-07T10:58:31.495Z,25.47
2023-05-07T10:59:22.508Z,25.38
2023-05-07T11:00:39.313Z,25.65
2023-05-07T11:01:36.393Z,25.79
2023-05-07T11:02:36.413Z,25.77
2023-05-07T11:03:36.320Z,26.09
2023-05-07T11:04:36.451Z,26.20
2023-05-07T11:05:38.295Z,26.05
2023-05-07T11:06:36.300Z,26.50
2023-05-07T11:07:36.303Z,27.07
2023-05-07T11:08:36.299Z,27.24
2023-05-07T11:09:36.276Z,27.09
2023-05-07T11:10:36.274Z,27.09
2023-05-07T11:11:36.252Z,27.22
2023-05-07T11:12:36.316Z,27.78
2023-05-07T11:13:36.244Z,27.90
2023-05-07T11:14:36.216Z,28.46
2023-05-07T11:15:36.215Z,29.02
2023-05-07T11:16:36.242Z,29.41
2023-05-07T11:17:37.417Z,28.68
2023-05-07T11:18:36.198Z,28.06
2023-05-07T11:19:36.186Z,26.72
2023-05-07T11:20:36.180Z,26.28
2023-05-07T11:21:36.144Z,26.40
2023-05-07T11:22:36.144Z,26.60
2023-05-07T11:23:36.139Z,26.15
2023-05-07T11:24:36.125Z,25.65
2023-05-07T11:25:36.124Z,25.42
2023-05-07T11:26:36.132Z,25.13
2023-05-07T11:27:36.118Z,25.18
2023-05-07T11:28:36.125Z,25.40
2023-05-07T11:29:36.096Z,25.43
2023-05-07T11:30:36.097Z,25.30
2023-05-07T11:31:36.208Z,25.47
2023-05-07T11:32:36.092Z,25.43
2023-05-07T11:33:36.060Z,25.28
2023-05-07T11:34:36.043Z,25.25
2023-05-07T11:35:37.176Z,25.13
2023-05-07T11:36:36.088Z,25.02
2023-05-07T11:37:36.005Z,24.96
2023-05-07T11:38:36.018Z,24.90
2023-05-07T11:39:35.995Z,24.99
2023-05-07T11:40:35.997Z,25.06
2023-05-07T11:41:36.144Z,24.83
2023-05-07T13:35:15.651Z,21.37
2023-05-07T13:36:15.682Z,21.61
2023-05-07T13:37:15.605Z,21.86
2023-05-07T13:38:15.614Z,21.71
2023-05-07T13:39:15.592Z,21.72
2023-05-07T13:40:15.581Z,21.71
2023-05-07T13:41:15.569Z,21.92
2023-05-07T13:42:15.553Z,22.33
2023-05-07T13:43:15.556Z,23.02
2023-05-07T13:44:15.531Z,23.63
2023-05-07T13:45:15.525Z,24.08
2023-05-07T13:46:15.506Z,24.58
2023-05-07T13:47:15.511Z,24.50
2023-05-07T13:48:15.511Z,24.81
2023-05-07T13:49:15.446Z,25.06
2023-05-07T13:50:15.440Z,24.99
2023-05-07T13:51:15.422Z,24.98
2023-05-07T13:52:15.435Z,24.99
2023-05-07T13:53:15.411Z,25.13
2023-05-07T13:54:15.410Z,24.90
2023-05-07T13:55:15.372Z,24.73
2023-05-07T13:56:15.373Z,24.58
2023-05-07T13:57:15.363Z,24.61
2023-05-07T13:58:15.365Z,24.55
2023-05-07T13:59:15.448Z,24.24
2023-05-07T14:00:15.383Z,24.18
2023-05-07T14:01:15.341Z,24.34
2023-05-07T14:02:15.343Z,24.71
2023-05-07T14:03:15.424Z,24.34
2023-05-07T14:04:15.329Z,24.62
2023-05-07T14:05:15.309Z,24.43
2023-05-07T14:06:15.261Z,24.65
2023-05-07T14:07:15.267Z,24.62
2023-05-07T14:08:15.287Z,24.69
2023-05-07T14:09:15.247Z,24.39
2023-05-07T14:10:15.418Z,24.18
2023-05-07T14:11:15.236Z,24.18
2023-05-07T14:12:15.230Z,24.34
2023-05-07T14:13:15.267Z,24.77
2023-05-07T14:14:15.203Z,24.47
2023-05-07T14:15:15.205Z,24.65
2023-05-07T14:16:15.199Z,24.45
2023-05-07T14:17:15.265Z,24.12
2023-05-07T14:18:15.171Z,24.24
2023-05-07T14:19:15.163Z,24.24
2023-05-07T14:20:15.329Z,24.02
